Etusivu
METAR-TAF:

METAR-TAF

Lentoasemat :

Bromman lentoasema

Tukholma, Ruotsi

Leveyspiiri: 59-21N, Pituuspiiri: 017-57E, korkeus merenpinnasta: 14 m

Tämänhetkinen sää

Tämä raportti tehtiin 43 minuuttia sitten, kello 14.20 UTC
Tuuli 11 kn etelästä/lounaasta
Lämpötila 21°C
Kosteus 49%
Ilmanpaine 1008 hPa
Näkyvyys 10 km tai enemmän
ei pilviä alle 1500 m:ssä eikä cumulonimbus-pilviä

METAR: ESSB 191420Z 21011KT CAVOK 21/10 Q1008

Aika: 17:03 (15:03 UTC)

Sääennuste

Tämä raportti tehtiin 33 minuuttia sitten, kello 14.30 UTC
Ennuste voimassa 19. päivästä klo 15 UTC - 19. päivään klo 20 UTC
Tuuli 11 kn lännestä/lounaasta
Näkyvyys 10 km tai enemmän
Hajanaisia pilviä 4000 ft:n korkeudessa
Todennäköisyys 40%
19. päivästä klo 15 UTC - 19. päivään klo 18 UTC
Hajanaisia pilviä 4000 ft:n korkeudessa, Cumulonimbus.
vesikuuroja

TAF: ESSB 191430Z 1915/1920 24011KT 9999 SCT040 PROB40 1915/1918 SHRA SCT040CB

Säähavainnot ja -ennusteet yli 4000 lentoasemalta (METAR- ja TAF-raportit).

Käytössä olevat sääasemat on merkitty karttaan keltaisilla ja punaisilla pisteillä.

Aseta hiiri pisteen päälle nähdäksesi sääaseman nimen.

Klikkaa sitten nähdäksesi säähavainnot ja -ennusteet.

Kartan vaihtaminen: klikkaa mustalla rastilla varustettuja vihreitä pisteitä, niin voit zoomata sisään; viivalla varustettua vihreää pistettä, niin voit zoomata ulos tai vihreitä nuolia, niin pääset viereisille kartoille.


METAR-TAF: